Time;durP1;ratioP1;P1;durP2;ratioP2;P2;SDS_P1;SDS_P2;PMS_P1;PMS_P2;Temp;Humidity;BMP_temperature;BMP_pressure;BME280_temperature;BME280_humidity;BME280_pressure;Samples;Min_cycle;Max_cycle;Signal;HPM_P1;HPM_P2
2023/09/12 00:01:46;;;;;;;12.37;10.73;;;;;;;21.79;82.16;156969.31;5060338;28;20982;-87
2023/09/12 00:04:13;;;;;;;12.70;10.30;;;;;;;21.79;81.38;156968.00;5066386;28;20434;-87
2023/09/12 00:06:41;;;;;;;13.13;11.80;;;;;;;21.72;81.85;156949.75;5060351;28;20458;-87
2023/09/12 00:09:10;;;;;;;12.47;11.17;;;;;;;21.64;82.51;156930.16;5066272;28;20484;-87
2023/09/12 00:11:36;;;;;;;12.50;10.50;;;;;;;21.56;83.22;156909.28;5065762;28;20902;-87
2023/09/12 00:14:03;;;;;;;12.43;11.23;;;;;;;21.50;83.16;156893.59;5066399;28;20474;-87
2023/09/12 00:16:30;;;;;;;14.93;11.73;;;;;;;21.50;83.03;156893.59;5062203;28;20512;-87
2023/09/12 00:18:57;;;;;;;11.50;10.30;;;;;;;21.51;82.71;156896.22;5055087;28;20469;-87
2023/09/12 00:21:24;;;;;;;12.57;11.30;;;;;;;21.49;82.68;156891.03;5057116;28;20593;-87
2023/09/12 00:23:53;;;;;;;12.70;11.20;;;;;;;21.44;83.08;156876.66;5064999;28;20457;-87
2023/09/12 00:26:25;;;;;;;17.27;11.30;;;;;;;21.41;83.65;156870.13;5054651;28;20820;-87
2023/09/12 00:28:52;;;;;;;13.43;11.43;;;;;;;21.39;83.31;156864.91;5046563;28;20508;-87
2023/09/12 00:31:21;;;;;;;15.37;11.53;;;;;;;21.35;83.78;156853.13;5063682;28;20478;-87
2023/09/12 00:33:54;;;;;;;15.47;11.10;;;;;;;21.31;84.37;156844.03;5050613;28;20441;-88
2023/09/12 00:36:23;;;;;;;12.10;10.90;;;;;;;21.30;84.70;156840.09;5053878;28;20505;-87
2023/09/12 00:38:51;;;;;;;13.83;11.40;;;;;;;21.30;84.74;156841.41;5048812;28;20561;-87
2023/09/12 00:41:18;;;;;;;12.97;11.03;;;;;;;21.27;84.66;156833.56;5067058;28;20545;-86
2023/09/12 00:43:49;;;;;;;12.33;11.13;;;;;;;21.23;85.05;156823.16;5058714;28;20449;-87
2023/09/12 00:46:19;;;;;;;13.50;12.10;;;;;;;21.21;85.26;156817.91;5060654;28;20462;-87
2023/09/12 00:48:47;;;;;;;13.73;12.33;;;;;;;21.18;85.78;156811.38;5054103;28;20448;-88
2023/09/12 00:51:14;;;;;;;13.57;11.77;;;;;;;21.16;85.33;156804.84;5046713;28;20493;-88
2023/09/12 00:53:41;;;;;;;12.53;11.20;;;;;;;21.17;85.66;156807.47;5065945;28;20454;-88
2023/09/12 00:56:10;;;;;;;17.33;12.40;;;;;;;21.13;85.97;156798.31;5064376;28;20462;-87
2023/09/12 00:58:37;;;;;;;13.40;11.37;;;;;;;21.12;85.99;156794.44;5051070;28;20450;-87
2023/09/12 01:01:05;;;;;;;13.03;11.63;;;;;;;21.15;85.07;156803.53;5050558;28;20446;-88
2023/09/12 01:03:35;;;;;;;14.77;13.27;;;;;;;21.16;86.08;156804.84;5051152;28;20565;-87
2023/09/12 01:06:03;;;;;;;14.33;11.63;;;;;;;21.13;85.83;156797.00;5054279;28;20454;-88
2023/09/12 01:08:32;;;;;;;12.37;10.93;;;;;;;21.12;85.33;156794.44;5034169;28;20559;-88
2023/09/12 01:11:02;;;;;;;14.63;11.77;;;;;;;21.14;85.43;156799.63;5046230;28;20490;-87
2023/09/12 01:13:29;;;;;;;13.43;11.87;;;;;;;21.10;85.73;156790.50;5054756;28;20456;-87
2023/09/12 01:15:56;;;;;;;13.30;11.90;;;;;;;21.04;85.59;156774.81;5059818;28;20954;-87
2023/09/12 01:18:25;;;;;;;13.33;11.77;;;;;;;21.03;85.34;156772.19;5054983;28;20624;-88
2023/09/12 01:21:08;;;;;;;12.87;10.33;;;;;;;21.01;86.04;156766.97;5051967;28;20829;-88
2023/09/12 01:23:47;;;;;;;15.63;11.93;;;;;;;21.00;85.94;156763.03;5060904;28;20549;-86
2023/09/12 01:26:36;;;;;;;12.53;10.93;;;;;;;20.90;86.72;156738.25;5058274;28;20485;-87
2023/09/12 01:29:05;;;;;;;13.43;11.70;;;;;;;20.84;86.80;156721.28;5040638;28;20459;-86
2023/09/12 01:31:33;;;;;;;12.60;11.30;;;;;;;20.81;86.79;156713.47;5057711;28;21000;-87
2023/09/12 01:34:09;;;;;;;11.37;10.17;;;;;;;20.84;86.24;156722.59;5049065;28;20447;-88
2023/09/12 01:36:36;;;;;;;12.63;11.33;;;;;;;20.87;86.01;156729.09;5033284;28;20453;-88
2023/09/12 01:39:06;;;;;;;12.13;10.80;;;;;;;20.87;85.88;156729.09;5034455;28;20810;-87
2023/09/12 01:41:36;;;;;;;12.30;10.60;;;;;;;20.83;86.07;156718.69;5055650;28;20451;-87
2023/09/12 01:44:05;;;;;;;14.10;11.00;;;;;;;20.82;85.58;156717.38;5048874;28;20474;-88
2023/09/12 01:46:32;;;;;;;14.80;10.50;;;;;;;20.80;85.79;156710.84;5054283;28;20438;-87
2023/09/12 01:48:59;;;;;;;11.70;10.50;;;;;;;20.81;85.48;156713.47;5035881;28;20474;-89
2023/09/12 01:51:29;;;;;;;11.90;10.60;;;;;;;20.82;85.98;156716.06;5050314;28;20482;-87
2023/09/12 01:53:59;;;;;;;12.50;11.30;;;;;;;20.81;86.42;156714.75;5069182;28;20565;-87
2023/09/12 01:56:30;;;;;;;13.40;11.60;;;;;;;20.80;86.99;156710.84;5039651;28;20474;-87
2023/09/12 01:59:04;;;;;;;13.80;11.93;;;;;;;20.75;87.37;156699.13;5057567;28;20450;-87
2023/09/12 02:01:38;;;;;;;16.43;11.00;;;;;;;20.71;87.64;156687.34;5054863;28;20477;-87
2023/09/12 02:04:08;;;;;;;14.17;12.00;;;;;;;20.64;87.95;156671.72;5048763;28;20458;-87
2023/09/12 02:06:35;;;;;;;16.17;12.50;;;;;;;20.60;88.21;156661.28;5051679;28;20937;-87
2023/09/12 02:09:02;;;;;;;14.60;12.43;;;;;;;20.58;88.10;156654.75;5058808;28;20486;-88
2023/09/12 02:11:31;;;;;;;14.87;12.13;;;;;;;20.58;88.25;156654.75;5051007;28;21332;-87
2023/09/12 02:13:57;;;;;;;12.80;11.57;;;;;;;20.58;87.83;156656.06;5070419;28;20706;-88
2023/09/12 02:16:24;;;;;;;13.80;11.83;;;;;;;20.57;88.03;156653.44;5068743;28;20453;-87
2023/09/12 02:18:52;;;;;;;15.17;12.03;;;;;;;20.53;88.32;156643.03;5061082;28;20453;-87
2023/09/12 02:21:24;;;;;;;13.23;11.93;;;;;;;20.46;88.62;156624.78;5045115;28;20459;-87
2023/09/12 02:23:51;;;;;;;13.97;11.87;;;;;;;20.47;88.50;156627.34;5058496;28;20478;-87
2023/09/12 02:26:19;;;;;;;14.27;11.80;;;;;;;20.47;88.41;156627.34;5061280;28;20501;-87
2023/09/12 02:28:46;;;;;;;13.10;11.80;;;;;;;20.47;88.38;156626.03;5057456;28;20462;-87
2023/09/12 02:31:13;;;;;;;16.10;12.60;;;;;;;20.46;88.57;156623.47;5051182;28;20476;-87
2023/09/12 02:33:40;;;;;;;13.00;11.60;;;;;;;20.39;88.92;156606.47;5060413;28;20445;-87
2023/09/12 02:36:09;;;;;;;12.27;11.17;;;;;;;20.31;89.20;156585.63;5043869;28;20484;-88
2023/09/12 02:38:39;;;;;;;16.63;11.70;;;;;;;20.27;89.45;156575.19;5075475;28;20985;-87
2023/09/12 02:41:09;;;;;;;13.30;11.87;;;;;;;20.23;89.71;156563.38;5054871;28;20559;-88
2023/09/12 02:43:36;;;;;;;13.40;11.70;;;;;;;20.20;90.12;156556.84;5051361;28;20467;-87
2023/09/12 02:46:03;;;;;;;14.80;13.30;;;;;;;20.20;90.02;156556.84;5057114;28;20453;-87
2023/09/12 02:48:32;;;;;;;13.30;11.90;;;;;;;20.19;89.56;156554.28;5061407;28;20708;-87
2023/09/12 02:50:59;;;;;;;13.43;12.03;;;;;;;20.20;89.97;156556.84;5058161;28;20856;-87
2023/09/12 02:53:27;;;;;;;15.80;11.33;;;;;;;20.19;89.84;156554.28;5056008;28;20562;-87
2023/09/12 02:55:54;;;;;;;13.40;11.87;;;;;;;20.17;90.10;156549.06;5052203;28;20544;-87
2023/09/12 02:58:21;;;;;;;17.50;12.83;;;;;;;20.10;90.37;156530.78;5048360;28;20476;-88
2023/09/12 03:00:50;;;;;;;14.73;13.13;;;;;;;20.08;90.48;156524.25;5053584;28;20549;-88
2023/09/12 03:03:17;;;;;;;16.43;12.17;;;;;;;20.04;90.82;156516.44;5052675;28;20873;-87
2023/09/12 03:05:43;;;;;;;14.57;12.97;;;;;;;19.96;91.67;156495.56;5058482;28;20455;-87
2023/09/12 03:08:10;;;;;;;14.93;12.43;;;;;;;19.89;91.83;156477.34;5037174;28;21111;-87
2023/09/12 03:10:41;;;;;;;14.37;12.97;;;;;;;19.88;92.57;156473.44;5040061;28;20870;-88
2023/09/12 03:13:08;;;;;;;13.57;12.17;;;;;;;19.86;92.58;156468.19;5049755;28;20513;-87
2023/09/12 03:15:38;;;;;;;13.63;12.33;;;;;;;19.86;92.07;156468.19;5051956;28;20529;-87
2023/09/12 03:18:11;;;;;;;14.47;12.43;;;;;;;19.86;92.08;156468.19;5048658;28;20461;-88
2023/09/12 03:20:39;;;;;;;13.63;11.97;;;;;;;19.84;92.06;156463.00;5063220;28;20473;-88
2023/09/12 03:23:05;;;;;;;14.93;11.87;;;;;;;19.80;92.31;156453.84;5047343;28;20462;-88
2023/09/12 03:25:36;;;;;;;13.20;11.90;;;;;;;19.76;92.59;156442.13;5055160;28;20461;-87
2023/09/12 03:28:05;;;;;;;15.60;13.90;;;;;;;19.72;92.71;156431.72;5063244;28;20470;-87
2023/09/12 03:30:34;;;;;;;15.20;12.67;;;;;;;19.72;92.85;156431.72;5060508;28;21007;-87
2023/09/12 03:33:00;;;;;;;15.80;13.77;;;;;;;19.67;93.60;156418.69;5034919;28;20485;-86
2023/09/12 03:35:29;;;;;;;14.20;10.80;;;;;;;19.58;93.94;156395.19;5059932;28;20867;-86
2023/09/12 03:37:55;;;;;;;12.73;11.53;;;;;;;19.56;93.69;156390.00;5061760;28;20474;-85
2023/09/12 03:40:22;;;;;;;16.83;12.37;;;;;;;19.61;93.33;156403.03;5049646;28;20497;-82
2023/09/12 03:42:49;;;;;;;18.80;13.17;;;;;;;19.61;93.22;156404.34;5044996;28;20447;-86
2023/09/12 03:45:17;;;;;;;15.30;11.93;;;;;;;19.65;92.93;156413.44;5049239;28;21054;-85
2023/09/12 03:47:46;;;;;;;14.27;12.87;;;;;;;19.67;92.70;156418.69;5059638;28;20442;-85
2023/09/12 03:50:14;;;;;;;16.33;11.40;;;;;;;19.65;92.98;156413.44;5051302;28;20438;-85
2023/09/12 03:52:40;;;;;;;15.10;13.07;;;;;;;19.64;93.03;156410.84;5067717;28;20569;-85
2023/09/12 03:55:08;;;;;;;16.50;12.60;;;;;;;19.58;93.30;156395.19;5058557;28;20466;-85
2023/09/12 03:57:34;;;;;;;13.13;11.80;;;;;;;19.56;93.44;156390.00;5040030;28;20461;-85
2023/09/12 04:00:04;;;;;;;13.93;12.37;;;;;;;19.55;93.32;156387.38;5056665;28;20547;-85
2023/09/12 04:02:41;;;;;;;14.67;12.27;;;;;;;19.56;93.21;156391.31;5055009;28;20456;-85
2023/09/12 04:05:09;;;;;;;13.93;12.43;;;;;;;19.63;92.56;156408.22;5059680;28;20458;-85
2023/09/12 04:07:35;;;;;;;15.53;12.87;;;;;;;19.64;92.25;156410.84;5051210;28;20466;-85
2023/09/12 04:10:03;;;;;;;16.27;13.20;;;;;;;19.62;92.63;156405.66;5041925;28;20451;-85
2023/09/12 04:12:29;;;;;;;12.77;11.47;;;;;;;19.62;92.73;156405.66;5046991;28;20502;-86
2023/09/12 04:14:56;;;;;;;15.20;11.70;;;;;;;19.58;92.98;156396.50;5055504;28;20457;-85
2023/09/12 04:17:23;;;;;;;14.80;12.13;;;;;;;19.55;92.45;156388.69;5052158;28;20437;-84
2023/09/12 04:19:51;;;;;;;14.87;12.13;;;;;;;19.55;92.34;156387.38;5044887;28;20509;-84
2023/09/12 04:22:18;;;;;;;14.37;12.53;;;;;;;19.53;92.86;156382.16;5039762;28;20447;-84
2023/09/12 04:24:45;;;;;;;14.77;10.90;;;;;;;19.53;92.75;156382.16;5042375;28;20462;-85
2023/09/12 04:27:12;;;;;;;13.23;11.20;;;;;;;19.52;92.56;156380.84;5052057;28;20453;-85
2023/09/12 04:29:39;;;;;;;18.43;11.17;;;;;;;19.52;92.12;156379.53;5043975;28;20473;-85
2023/09/12 04:32:06;;;;;;;14.33;12.27;;;;;;;19.53;92.80;156382.16;5059762;28;20569;-85
2023/09/12 04:34:33;;;;;;;12.67;11.20;;;;;;;19.50;93.07;156375.66;5043614;28;20481;-85
2023/09/12 04:37:02;;;;;;;13.50;12.10;;;;;;;19.49;93.21;156373.03;5060733;28;20568;-85
2023/09/12 04:39:29;;;;;;;12.93;11.53;;;;;;;19.48;93.23;156370.44;5042788;28;20496;-85
2023/09/12 04:41:56;;;;;;;14.73;11.77;;;;;;;19.47;93.27;156366.50;5045684;28;20446;-85
2023/09/12 04:44:23;;;;;;;14.90;12.13;;;;;;;19.49;93.39;156373.03;5038372;28;20449;-85
2023/09/12 04:46:49;;;;;;;13.83;11.90;;;;;;;19.47;93.16;156367.81;5054238;28;20458;-85
2023/09/12 04:49:16;;;;;;;14.73;11.40;;;;;;;19.45;93.64;156362.63;5067882;28;20449;-85
2023/09/12 04:51:43;;;;;;;13.13;11.67;;;;;;;19.39;94.32;156348.28;5058830;28;20451;-85
2023/09/12 04:54:11;;;;;;;13.10;11.90;;;;;;;19.32;94.50;156330.00;5066365;28;20504;-86
2023/09/12 04:56:37;;;;;;;13.37;12.07;;;;;;;19.31;94.74;156327.38;5045703;28;20477;-85
2023/09/12 04:59:06;;;;;;;14.30;12.90;;;;;;;19.31;94.60;156327.38;5070409;28;20515;-85
2023/09/12 05:01:33;;;;;;;14.60;13.07;;;;;;;19.29;94.72;156320.84;5062256;28;20455;-85
2023/09/12 05:04:02;;;;;;;14.87;13.27;;;;;;;19.24;94.86;156309.13;5055101;28;20461;-84
2023/09/12 05:06:30;;;;;;;17.93;13.23;;;;;;;19.23;95.18;156306.53;5048747;28;20457;-85
2023/09/12 05:08:56;;;;;;;15.33;13.37;;;;;;;19.20;95.01;156298.69;5035592;28;20454;-85
2023/09/12 05:11:25;;;;;;;15.37;13.73;;;;;;;19.20;95.14;156298.69;5041865;28;20537;-85
2023/09/12 05:13:52;;;;;;;16.33;12.80;;;;;;;19.22;95.38;156303.88;5046194;28;20923;-85
2023/09/12 05:16:19;;;;;;;19.90;13.23;;;;;;;19.21;95.52;156301.31;5055580;28;20449;-86
2023/09/12 05:18:45;;;;;;;14.70;13.20;;;;;;;19.20;95.23;156297.38;5040237;28;20466;-86
2023/09/12 05:21:12;;;;;;;17.43;14.10;;;;;;;19.20;95.48;156298.69;5064304;28;20546;-87
2023/09/12 05:23:38;;;;;;;19.30;14.47;;;;;;;19.22;95.40;156303.88;5072200;28;20448;-86
2023/09/12 05:26:06;;;;;;;15.03;13.47;;;;;;;19.26;95.47;156313.03;5057029;28;20537;-86
2023/09/12 05:28:35;;;;;;;15.97;14.37;;;;;;;19.30;95.24;156323.47;5059374;28;20566;-86
2023/09/12 05:31:02;;;;;;;19.27;14.90;;;;;;;19.33;94.80;156332.56;5056004;28;20446;-86
2023/09/12 05:33:30;;;;;;;14.77;13.20;;;;;;;19.37;94.80;156343.06;5035070;28;20478;-86
2023/09/12 05:35:57;;;;;;;14.20;12.77;;;;;;;19.40;94.42;156349.59;5056450;28;20478;-74
2023/09/12 05:38:23;;;;;;;17.57;12.60;;;;;;;19.42;94.34;156354.78;5058559;28;20567;-74
2023/09/12 05:40:50;;;;;;;14.27;12.87;;;;;;;19.43;94.42;156358.69;5038998;28;20453;-74
2023/09/12 05:43:17;;;;;;;14.03;11.80;;;;;;;19.51;93.98;156376.97;5051394;28;20841;-74
2023/09/12 05:45:46;;;;;;;14.30;12.57;;;;;;;19.56;93.94;156390.00;5050633;28;20781;-74
2023/09/12 05:48:12;;;;;;;15.00;13.30;;;;;;;19.62;93.66;156405.66;5059925;28;20458;-75
2023/09/12 05:50:39;;;;;;;18.10;12.53;;;;;;;19.68;93.84;156421.25;5055047;28;20912;-75
2023/09/12 05:53:06;;;;;;;15.80;12.80;;;;;;;19.76;93.21;156443.44;5042310;28;20567;-74
2023/09/12 05:55:32;;;;;;;13.80;12.40;;;;;;;19.85;92.75;156465.63;5056026;28;20453;-74
2023/09/12 05:57:59;;;;;;;14.57;13.00;;;;;;;19.93;92.57;156486.47;5040249;28;20492;-75
2023/09/12 06:00:26;;;;;;;14.70;12.50;;;;;;;19.98;92.98;156500.81;5038718;28;20457;-84
2023/09/12 06:02:55;;;;;;;14.40;12.90;;;;;;;20.04;92.14;156515.19;5039139;28;20531;-83
2023/09/12 06:05:22;;;;;;;12.93;11.60;;;;;;;20.12;91.58;156534.72;5059459;28;20470;-84
2023/09/12 06:07:48;;;;;;;12.53;11.30;;;;;;;20.24;91.58;156566.06;5059583;28;20451;-85
2023/09/12 06:10:15;;;;;;;13.07;10.43;;;;;;;20.31;91.02;156585.63;5057824;28;20477;-83
2023/09/12 06:12:42;;;;;;;13.93;12.50;;;;;;;20.39;91.04;156606.47;5056546;28;20474;-84
2023/09/12 06:15:09;;;;;;;12.73;11.53;;;;;;;20.50;90.60;156633.88;5054847;28;20446;-85
2023/09/12 06:17:35;;;;;;;13.43;11.13;;;;;;;20.64;90.15;156671.72;5041313;28;20442;-85
2023/09/12 06:20:06;;;;;;;14.00;12.30;;;;;;;20.80;89.62;156712.16;5068695;28;20460;-86
2023/09/12 06:22:33;;;;;;;12.03;10.87;;;;;;;20.95;88.09;156750.00;5054212;28;20569;-85
2023/09/12 06:25:00;;;;;;;11.73;10.63;;;;;;;21.04;87.31;156773.50;5057446;28;20545;-84
2023/09/12 06:27:27;;;;;;;15.10;10.83;;;;;;;21.10;86.96;156789.22;5044395;28;20488;-84
2023/09/12 06:29:53;;;;;;;11.87;10.77;;;;;;;21.19;86.86;156812.69;5053079;28;20463;-84
2023/09/12 06:32:20;;;;;;;13.67;11.33;;;;;;;21.32;86.32;156846.63;5054832;28;20579;-84
2023/09/12 06:34:47;;;;;;;13.80;12.10;;;;;;;21.48;85.58;156887.06;5059035;28;21114;-85
2023/09/12 06:37:15;;;;;;;11.80;10.80;;;;;;;21.57;84.54;156911.91;5055266;28;20599;-86
2023/09/12 06:39:41;;;;;;;11.97;10.70;;;;;;;21.62;84.15;156924.97;5056474;28;20468;-83
2023/09/12 06:42:12;;;;;;;11.50;10.40;;;;;;;21.64;83.83;156930.16;5054421;28;20459;-83
2023/09/12 06:44:41;;;;;;;13.37;11.33;;;;;;;21.65;84.51;156932.78;5054269;28;20466;-84
2023/09/12 06:47:10;;;;;;;12.73;10.60;;;;;;;21.69;84.19;156943.22;5057662;28;20903;-83
2023/09/12 06:49:37;;;;;;;12.67;11.47;;;;;;;21.71;83.69;156948.44;5055894;28;20821;-83
2023/09/12 06:52:04;;;;;;;13.63;12.30;;;;;;;;;;5058957;28;20455;-83
2023/09/12 06:54:33;;;;;;;12.93;11.63;;;;;;;21.70;84.21;156945.84;5056991;28;20872;-84
2023/09/12 06:57:00;;;;;;;12.23;10.93;;;;;;;21.73;84.34;156952.38;5040415;28;20524;-84
2023/09/12 06:59:26;;;;;;;11.70;10.50;;;;;;;21.79;84.12;156968.00;5051644;28;20486;-84
2023/09/12 07:01:53;;;;;;;12.77;11.33;;;;;;;21.86;84.39;156986.38;5044735;28;20533;-81
2023/09/12 07:04:20;;;;;;;17.03;11.47;;;;;;;21.90;84.05;156995.47;5055949;28;20445;-86
2023/09/12 07:06:46;;;;;;;11.97;10.80;;;;;;;21.95;84.29;157008.56;5050759;28;20451;-85
2023/09/12 07:09:14;;;;;;;15.70;11.63;;;;;;;22.01;83.84;157025.53;5050369;28;20494;-85
2023/09/12 07:11:43;;;;;;;12.00;10.90;;;;;;;22.09;83.99;157045.09;5049478;28;20497;-85
2023/09/12 07:14:10;;;;;;;11.20;10.10;;;;;;;22.20;83.52;157075.16;5059864;28;21060;-85
2023/09/12 07:16:36;;;;;;;11.30;10.27;;;;;;;22.32;83.48;157106.47;5054301;28;20450;-87
2023/09/12 07:19:03;;;;;;;12.37;11.10;;;;;;;22.44;82.82;157136.53;5055540;28;20490;-85
2023/09/12 07:21:30;;;;;;;11.67;10.47;;;;;;;22.54;82.58;157162.66;5055421;28;20536;-86
2023/09/12 07:23:56;;;;;;;12.10;10.90;;;;;;;22.66;81.66;157192.78;5053616;28;20988;-86
2023/09/12 07:26:23;;;;;;;12.40;11.27;;;;;;;22.83;81.57;157238.47;5051572;28;20453;-86
2023/09/12 07:28:51;;;;;;;12.20;10.57;;;;;;;23.07;81.76;157298.56;5056990;28;20488;-86
2023/09/12 07:31:18;;;;;;;12.43;11.23;;;;;;;23.37;80.65;157377.06;5054150;28;20445;-86
2023/09/12 07:33:45;;;;;;;11.27;10.20;;;;;;;23.59;78.80;157434.53;5052998;28;20696;-86
2023/09/12 07:36:12;;;;;;;12.70;11.40;;;;;;;23.72;77.79;157468.56;5053804;28;20489;-85
2023/09/12 07:38:39;;;;;;;11.57;10.37;;;;;;;23.75;77.04;157475.13;5039750;28;20459;-85
2023/09/12 07:41:06;;;;;;;13.40;10.77;;;;;;;23.78;76.38;157484.22;5054357;28;20484;-85
2023/09/12 07:43:32;;;;;;;12.30;11.03;;;;;;;23.89;76.47;157513.00;5049256;28;20453;-86
2023/09/12 07:46:00;;;;;;;12.30;11.07;;;;;;;24.00;75.95;157541.78;5050536;28;20460;-86
2023/09/12 07:48:27;;;;;;;12.10;10.90;;;;;;;24.04;76.71;157550.94;5069493;28;20485;-85
2023/09/12 07:50:54;;;;;;;11.20;10.03;;;;;;;23.99;77.95;157539.13;5057835;28;20512;-85
2023/09/12 07:53:22;;;;;;;11.77;10.67;;;;;;;24.13;76.78;157574.50;5053512;28;20986;-86
2023/09/12 07:55:49;;;;;;;14.97;11.00;;;;;;;24.41;76.57;157646.47;5050112;28;20869;-87
2023/09/12 07:58:18;;;;;;;11.83;10.63;;;;;;;24.60;74.71;157696.13;5052796;28;20516;-85
2023/09/12 08:00:45;;;;;;;12.40;11.20;;;;;;;24.71;73.73;157724.91;5039844;28;20530;-85
2023/09/12 08:03:15;;;;;;;12.87;11.47;;;;;;;24.71;73.28;157724.91;5049448;28;20843;-84
2023/09/12 08:05:41;;;;;;;12.47;11.17;;;;;;;24.70;72.79;157722.31;5063261;28;20497;-80
2023/09/12 08:08:08;;;;;;;11.47;10.37;;;;;;;24.73;73.32;157730.13;5048371;28;20453;-80
2023/09/12 08:10:35;;;;;;;13.07;11.70;;;;;;;24.75;73.49;157735.41;5052074;28;20450;-80
2023/09/12 08:13:01;;;;;;;13.70;12.40;;;;;;;24.83;73.40;157756.38;5054445;28;20833;-80
2023/09/12 08:15:28;;;;;;;14.23;10.20;;;;;;;24.93;73.41;157782.53;5072387;28;20818;-81
2023/09/12 08:17:55;;;;;;;12.57;11.17;;;;;;;25.00;73.18;157800.84;5055515;28;20450;-80
2023/09/12 08:20:23;;;;;;;12.00;11.00;;;;;;;25.05;72.28;157812.59;5054642;28;21049;-81
2023/09/12 08:22:50;;;;;;;13.17;11.83;;;;;;;25.07;72.42;157817.88;5053190;28;20457;-81
2023/09/12 08:25:16;;;;;;;13.10;11.83;;;;;;;25.05;72.51;157813.91;5070445;28;20446;-81
2023/09/12 08:27:43;;;;;;;13.57;12.27;;;;;;;25.06;73.17;157816.56;5056204;28;20462;-81
2023/09/12 08:30:12;;;;;;;15.17;12.93;;;;;;;25.08;72.78;157821.78;5051868;28;20530;-81
2023/09/12 08:32:39;;;;;;;13.17;11.97;;;;;;;25.09;72.88;157823.09;5056077;28;20464;-81
2023/09/12 08:35:07;;;;;;;13.70;12.40;;;;;;;25.11;73.31;157828.31;5040669;28;20584;-81
2023/09/12 08:37:35;;;;;;;13.87;12.60;;;;;;;25.07;73.32;157819.16;5056626;28;20461;-81
2023/09/12 08:40:07;;;;;;;15.10;11.90;;;;;;;25.06;73.35;157816.56;5072577;28;20457;-81
2023/09/12 08:42:40;;;;;;;13.20;11.93;;;;;;;25.08;73.86;157820.47;5058571;28;20958;-81
2023/09/12 08:45:09;;;;;;;16.80;11.60;;;;;;;25.17;72.75;157845.34;5056566;28;20999;-81
2023/09/12 08:47:36;;;;;;;12.90;11.70;;;;;;;25.32;73.18;157884.59;5072150;28;21248;-81
2023/09/12 08:50:04;;;;;;;13.40;11.90;;;;;;;25.50;71.27;157929.13;5058106;28;20454;-81
2023/09/12 08:52:30;;;;;;;12.97;11.67;;;;;;;25.60;70.79;157955.34;5045993;28;20834;-81
2023/09/12 08:54:58;;;;;;;13.93;12.50;;;;;;;25.71;70.30;157984.09;5059546;28;20487;-81
2023/09/12 08:57:27;;;;;;;15.50;11.37;;;;;;;25.82;70.49;158012.91;5057614;28;20466;-81
2023/09/12 08:59:54;;;;;;;15.47;11.90;;;;;;;25.86;70.73;158023.41;5060661;28;21231;-81
2023/09/12 09:02:22;;;;;;;13.47;11.87;;;;;;;25.88;69.97;158029.94;5063854;28;20448;-81
2023/09/12 09:04:49;;;;;;;14.40;12.90;;;;;;;25.99;69.66;158058.75;5055754;28;20473;-81
2023/09/12 09:07:17;;;;;;;15.20;12.07;;;;;;;26.12;68.81;158090.16;5070497;28;20457;-81
2023/09/12 09:09:44;;;;;;;14.70;12.90;;;;;;;26.25;68.14;158125.56;5058640;28;20462;-81
2023/09/12 09:12:12;;;;;;;14.10;12.60;;;;;;;26.24;67.92;158122.94;5062926;28;20453;-82
2023/09/12 09:14:42;;;;;;;15.27;12.43;;;;;;;26.29;68.85;158136.03;5058702;28;20475;-81
2023/09/12 09:17:10;;;;;;;13.13;11.97;;;;;;;26.35;68.37;158151.75;5062741;28;20630;-82
2023/09/12 09:19:44;;;;;;;16.20;12.73;;;;;;;26.36;69.10;158153.06;5056601;28;20457;-86
2023/09/12 09:22:11;;;;;;;15.23;11.83;;;;;;;26.32;69.35;158143.88;5061705;28;20849;-86
2023/09/12 09:24:38;;;;;;;14.27;12.97;;;;;;;26.36;68.50;158154.41;5064312;28;20466;-87
2023/09/12 09:27:05;;;;;;;13.23;11.90;;;;;;;26.45;68.23;158177.94;5059098;28;20820;-87
2023/09/12 09:29:33;;;;;;;15.33;12.13;;;;;;;26.66;67.68;158230.34;5055225;28;20868;-87
2023/09/12 09:32:01;;;;;;;13.77;12.00;;;;;;;26.75;67.34;158253.91;5073391;28;20994;-87
2023/09/12 09:34:29;;;;;;;14.37;12.80;;;;;;;26.91;66.72;158297.19;5053538;28;20880;-87
2023/09/12 09:36:57;;;;;;;13.03;11.90;;;;;;;27.01;65.05;158323.38;5060768;28;20480;-87
2023/09/12 09:39:26;;;;;;;14.00;12.60;;;;;;;27.00;65.82;158319.47;5054490;28;20462;-87
2023/09/12 09:41:53;;;;;;;13.53;11.63;;;;;;;26.94;66.20;158303.75;5062368;28;20912;-87
2023/09/12 09:44:22;;;;;;;12.83;11.53;;;;;;;26.95;65.95;158306.38;5054572;28;20457;-87
2023/09/12 09:46:55;;;;;;;17.07;12.40;;;;;;;26.93;65.17;158302.44;5053931;28;20583;-83
2023/09/12 09:49:24;;;;;;;13.40;11.97;;;;;;;26.98;65.26;158315.53;5055302;28;20473;-82
2023/09/12 09:51:51;;;;;;;14.40;11.97;;;;;;;27.07;64.14;158339.13;5054835;28;20824;-83
2023/09/12 09:54:18;;;;;;;16.40;11.37;;;;;;;27.10;63.81;158345.69;5041568;28;20515;-82
2023/09/12 09:56:48;;;;;;;14.47;11.50;;;;;;;27.14;65.30;158356.13;5070151;28;20442;-83
2023/09/12 09:59:16;;;;;;;13.13;11.90;;;;;;;27.26;65.60;158387.59;5049110;28;20489;-82
2023/09/12 10:01:46;;;;;;;13.37;11.40;;;;;;;27.29;65.16;158394.16;5054332;28;20550;-83
2023/09/12 10:04:15;;;;;;;12.60;11.20;;;;;;;27.32;65.42;158403.34;5031325;28;20470;-82
2023/09/12 10:06:44;;;;;;;12.87;11.67;;;;;;;27.46;65.72;158438.75;5056781;28;20504;-83
2023/09/12 10:09:13;;;;;;;13.90;12.60;;;;;;;27.42;64.53;158429.59;5055442;28;20450;-82
2023/09/12 10:11:40;;;;;;;13.30;11.90;;;;;;;27.36;64.18;158413.81;5049980;28;20593;-83
2023/09/12 10:14:08;;;;;;;20.60;11.80;;;;;;;27.19;64.90;158369.28;5058846;28;20484;-82
2023/09/12 10:16:36;;;;;;;15.77;10.90;;;;;;;27.20;65.41;158373.19;5058324;28;20454;-83
2023/09/12 10:19:10;;;;;;;13.53;11.73;;;;;;;27.32;64.51;158403.34;5054004;28;20572;-82
2023/09/12 10:21:46;;;;;;;11.97;10.70;;;;;;;27.29;64.36;158395.47;5056681;28;20461;-82
2023/09/12 10:24:12;;;;;;;13.23;11.87;;;;;;;27.33;65.08;158405.94;5054482;28;20465;-83
2023/09/12 10:26:43;;;;;;;12.57;11.33;;;;;;;27.34;65.25;158408.56;5069750;28;20883;-83
2023/09/12 10:29:10;;;;;;;12.77;11.57;;;;;;;27.40;64.60;158424.38;5055474;28;21026;-83
2023/09/12 10:31:37;;;;;;;18.83;11.10;;;;;;;27.30;64.11;158396.78;5068969;28;20533;-83
2023/09/12 10:34:08;;;;;;;12.77;11.60;;;;;;;27.27;65.50;158388.94;5052846;28;20524;-83
2023/09/12 10:36:36;;;;;;;12.63;10.67;;;;;;;27.33;64.16;158404.63;5051895;28;20439;-83
2023/09/12 10:39:05;;;;;;;11.53;10.40;;;;;;;27.27;63.38;158388.94;5053719;28;20480;-83
2023/09/12 10:41:32;;;;;;;11.83;10.70;;;;;;;27.26;64.30;158387.59;5054388;28;20532;-83
2023/09/12 10:43:59;;;;;;;12.03;10.67;;;;;;;27.34;64.50;158407.25;5057346;28;20792;-83
2023/09/12 10:46:25;;;;;;;12.40;11.20;;;;;;;27.49;64.27;158446.59;5053436;28;20464;-82
2023/09/12 10:48:52;;;;;;;11.93;10.70;;;;;;;27.59;63.82;158472.81;5055252;28;20461;-82
2023/09/12 10:51:19;;;;;;;12.23;11.00;;;;;;;27.70;64.30;158502.97;5054492;28;20543;-82
2023/09/12 10:53:48;;;;;;;12.90;11.57;;;;;;;27.72;63.45;158508.19;5055675;28;20446;-83
2023/09/12 10:56:18;;;;;;;13.23;11.37;;;;;;;27.68;64.06;158497.75;5054123;28;20454;-82
2023/09/12 10:59:14;;;;;;;12.10;10.60;;;;;;;27.78;63.31;158522.63;5054868;28;20470;-82
2023/09/12 11:01:42;;;;;;;11.57;10.40;;;;;;;27.82;63.51;158533.13;5069814;28;21278;-87
2023/09/12 11:04:39;;;;;;;12.37;11.17;;;;;;;27.95;62.43;158567.22;5039873;28;20826;-87
2023/09/12 11:11:20;;;;;;;12.13;10.90;;;;;;;28.07;62.34;158598.69;4980799;28;20960;-87
2023/09/12 11:13:47;;;;;;;14.30;11.27;;;;;;;28.15;61.57;158618.38;5056837;28;20461;-87
2023/09/12 11:16:17;;;;;;;12.47;11.27;;;;;;;28.15;61.85;158618.38;5058020;28;20486;-87
2023/09/12 11:19:16;;;;;;;12.37;11.17;;;;;;;28.25;60.59;158644.63;5042101;28;20532;-87